<?xml version='1.0' encoding='UTF-8'?><gpx version="1.1" creator="JPX - https://github.com/jenetics/jpx" xmlns="http://www.topografix.com/GPX/1/1"><trk><trkseg><trkpt lat="43.7853855" lon="11.2313267"><ele>45.0</ele><time>2026-04-12T09:37:51.422Z</time></trkpt><trkpt lat="43.7853407" lon="11.231265"><ele>45.0</ele><time>2026-04-12T09:37:53.922Z</time></trkpt><trkpt lat="43.7852677" lon="11.2312664"><ele>45.0</ele><time>2026-04-12T09:37:56.923Z</time></trkpt><trkpt lat="43.7852012" lon="11.2312672"><ele>45.0</ele><time>2026-04-12T09:37:59.923Z</time></trkpt><trkpt lat="43.7852714" lon="11.2313068"><ele>45.0</ele><time>2026-04-12T09:38:13.922Z</time></trkpt><trkpt lat="43.7852442" lon="11.2314016"><ele>45.0</ele><time>2026-04-12T09:38:16.922Z</time></trkpt><trkpt lat="43.7852115" lon="11.2314976"><ele>45.0</ele><time>2026-04-12T09:38:19.923Z</time></trkpt><trkpt lat="43.7851713" lon="11.2315994"><ele>45.166666666666664</ele><time>2026-04-12T09:38:22.922Z</time></trkpt><trkpt lat="43.7851294" lon="11.2316768"><ele>45.333333333333336</ele><time>2026-04-12T09:38:25.922Z</time></trkpt><trkpt lat="43.7850868" lon="11.2317581"><ele>45.5</ele><time>2026-04-12T09:38:31.922Z</time></trkpt><trkpt lat="43.785035" lon="11.23183"><ele>45.66666666666667</ele><time>2026-04-12T09:38:41.922Z</time></trkpt><trkpt lat="43.7849933" lon="11.2319083"><ele>45.833333333333336</ele><time>2026-04-12T09:38:44.922Z</time></trkpt><trkpt lat="43.784955" lon="11.2319833"><ele>46.0</ele><time>2026-04-12T09:38:46.922Z</time></trkpt><trkpt lat="43.7848967" lon="11.232095"><ele>46.0</ele><time>2026-04-12T09:38:49.923Z</time></trkpt><trkpt lat="43.784855" lon="11.2321733"><ele>46.0</ele><time>2026-04-12T09:38:51.923Z</time></trkpt><trkpt lat="43.7848083" lon="11.2322617"><ele>46.0</ele><time>2026-04-12T09:38:54.922Z</time></trkpt><trkpt lat="43.7847567" lon="11.2323583"><ele>46.0</ele><time>2026-04-12T09:38:57.922Z</time></trkpt><trkpt lat="43.7847133" lon="11.2324417"><ele>46.0</ele><time>2026-04-12T09:38:59.922Z</time></trkpt><trkpt lat="43.7846683" lon="11.2325267"><ele>46.0</ele><time>2026-04-12T09:39:02.922Z</time></trkpt><trkpt lat="43.7846283" lon="11.2326033"><ele>45.833333333333336</ele><time>2026-04-12T09:39:04.922Z</time></trkpt><trkpt lat="43.7845883" lon="11.23268"><ele>45.66666666666667</ele><time>2026-04-12T09:39:07.922Z</time></trkpt><trkpt lat="43.784545" lon="11.23276"><ele>45.5</ele><time>2026-04-12T09:39:11.922Z</time></trkpt><trkpt lat="43.784505" lon="11.2328383"><ele>45.333333333333336</ele><time>2026-04-12T09:39:14.923Z</time></trkpt><trkpt lat="43.784465" lon="11.232935"><ele>45.166666666666664</ele><time>2026-04-12T09:39:17.922Z</time></trkpt><trkpt lat="43.7844183" lon="11.23305"><ele>45.0</ele><time>2026-04-12T09:39:20.923Z</time></trkpt><trkpt lat="43.784365" lon="11.2331467"><ele>45.0</ele><time>2026-04-12T09:39:23.922Z</time></trkpt><trkpt lat="43.7843217" lon="11.2332333"><ele>45.0</ele><time>2026-04-12T09:39:25.922Z</time></trkpt><trkpt lat="43.7842717" lon="11.233335"><ele>45.0</ele><time>2026-04-12T09:39:28.922Z</time></trkpt><trkpt lat="43.78423" lon="11.2334167"><ele>45.0</ele><time>2026-04-12T09:39:31.922Z</time></trkpt><trkpt lat="43.78417" lon="11.2335033"><ele>45.0</ele><time>2026-04-12T09:39:34.922Z</time></trkpt><trkpt lat="43.7841233" lon="11.2335633"><ele>45.0</ele><time>2026-04-12T09:39:36.922Z</time></trkpt><trkpt lat="43.7840583" lon="11.233645"><ele>45.0</ele><time>2026-04-12T09:39:39.922Z</time></trkpt><trkpt lat="43.784" lon="11.2337467"><ele>45.0</ele><time>2026-04-12T09:39:42.922Z</time></trkpt><trkpt lat="43.78395" lon="11.23384"><ele>45.0</ele><time>2026-04-12T09:39:45.922Z</time></trkpt><trkpt lat="43.783895" lon="11.2339417"><ele>45.0</ele><time>2026-04-12T09:39:48.923Z</time></trkpt><trkpt lat="43.783855" lon="11.23402"><ele>45.0</ele><time>2026-04-12T09:39:50.922Z</time></trkpt><trkpt lat="43.7838117" lon="11.2340983"><ele>45.0</ele><time>2026-04-12T09:39:54.923Z</time></trkpt><trkpt lat="43.7837733" lon="11.2341683"><ele>45.166666666666664</ele><time>2026-04-12T09:39:58.923Z</time></trkpt><trkpt lat="43.7837317" lon="11.2342467"><ele>45.333333333333336</ele><time>2026-04-12T09:40:01.923Z</time></trkpt><trkpt lat="43.7836833" lon="11.2343367"><ele>45.5</ele><time>2026-04-12T09:40:04.923Z</time></trkpt><trkpt lat="43.783635" lon="11.2344267"><ele>45.66666666666667</ele><time>2026-04-12T09:40:07.922Z</time></trkpt><trkpt lat="43.783595" lon="11.2345017"><ele>45.833333333333336</ele><time>2026-04-12T09:40:09.922Z</time></trkpt><trkpt lat="43.7835333" lon="11.23462"><ele>46.0</ele><time>2026-04-12T09:40:12.922Z</time></trkpt><trkpt lat="43.7834733" lon="11.23473"><ele>45.8</ele><time>2026-04-12T09:40:15.922Z</time></trkpt><trkpt lat="43.7834217" lon="11.2348267"><ele>45.599999999999994</ele><time>2026-04-12T09:40:18.922Z</time></trkpt><trkpt lat="43.7833817" lon="11.2349017"><ele>45.4</ele><time>2026-04-12T09:40:20.922Z</time></trkpt><trkpt lat="43.7833217" lon="11.2350167"><ele>45.2</ele><time>2026-04-12T09:40:23.922Z</time></trkpt><trkpt lat="43.7832633" lon="11.2351233"><ele>45.0</ele><time>2026-04-12T09:40:26.922Z</time></trkpt><trkpt lat="43.7832033" lon="11.2352367"><ele>45.0</ele><time>2026-04-12T09:40:29.923Z</time></trkpt><trkpt lat="43.7831633" lon="11.2353133"><ele>45.0</ele><time>2026-04-12T09:40:31.923Z</time></trkpt><trkpt lat="43.7831233" lon="11.235385"><ele>45.0</ele><time>2026-04-12T09:40:33.923Z</time></trkpt><trkpt lat="43.7830783" lon="11.2354717"><ele>45.0</ele><time>2026-04-12T09:40:35.922Z</time></trkpt><trkpt lat="43.783035" lon="11.2355517"><ele>45.0</ele><time>2026-04-12T09:40:37.923Z</time></trkpt><trkpt lat="43.782995" lon="11.2356283"><ele>45.0</ele><time>2026-04-12T09:40:39.922Z</time></trkpt><trkpt lat="43.7829383" lon="11.2357333"><ele>45.0</ele><time>2026-04-12T09:40:42.921Z</time></trkpt><trkpt lat="43.782885" lon="11.2358317"><ele>45.0</ele><time>2026-04-12T09:40:45.921Z</time></trkpt><trkpt lat="43.78284" lon="11.2359167"><ele>45.0</ele><time>2026-04-12T09:40:48.921Z</time></trkpt><trkpt lat="43.7828017" lon="11.23599"><ele>45.0</ele><time>2026-04-12T09:40:50.921Z</time></trkpt><trkpt lat="43.7827467" lon="11.2360933"><ele>45.0</ele><time>2026-04-12T09:40:53.922Z</time></trkpt><trkpt lat="43.7827033" lon="11.2361717"><ele>45.0</ele><time>2026-04-12T09:40:55.921Z</time></trkpt><trkpt lat="43.78266" lon="11.236255"><ele>45.0</ele><time>2026-04-12T09:40:57.921Z</time></trkpt><trkpt lat="43.7826017" lon="11.236335"><ele>45.0</ele><time>2026-04-12T09:40:59.921Z</time></trkpt><trkpt lat="43.7825417" lon="11.2364117"><ele>45.0</ele><time>2026-04-12T09:41:01.921Z</time></trkpt><trkpt lat="43.78248" lon="11.2364933"><ele>45.0</ele><time>2026-04-12T09:41:03.921Z</time></trkpt><trkpt lat="43.7824283" lon="11.2365867"><ele>45.0</ele><time>2026-04-12T09:41:05.921Z</time></trkpt><trkpt lat="43.7823783" lon="11.23668"><ele>45.0</ele><time>2026-04-12T09:41:07.922Z</time></trkpt><trkpt lat="43.782325" lon="11.2367717"><ele>45.0</ele><time>2026-04-12T09:41:09.921Z</time></trkpt><trkpt lat="43.7822667" lon="11.2368617"><ele>44.833333333333336</ele><time>2026-04-12T09:41:11.921Z</time></trkpt><trkpt lat="43.78221" lon="11.2369483"><ele>44.666666666666664</ele><time>2026-04-12T09:41:13.921Z</time></trkpt><trkpt lat="43.78215" lon="11.2370233"><ele>44.5</ele><time>2026-04-12T09:41:15.921Z</time></trkpt><trkpt lat="43.7820933" lon="11.2370933"><ele>44.33333333333333</ele><time>2026-04-12T09:41:17.922Z</time></trkpt><trkpt lat="43.7820417" lon="11.237155"><ele>44.166666666666664</ele><time>2026-04-12T09:41:19.921Z</time></trkpt><trkpt lat="43.7819683" lon="11.2372333"><ele>44.0</ele><time>2026-04-12T09:41:22.921Z</time></trkpt><trkpt lat="43.781895" lon="11.23732"><ele>44.5</ele><time>2026-04-12T09:41:25.921Z</time></trkpt><trkpt lat="43.7818367" lon="11.2374017"><ele>45.0</ele><time>2026-04-12T09:41:27.921Z</time></trkpt><trkpt lat="43.7817817" lon="11.2375"><ele>45.5</ele><time>2026-04-12T09:41:29.922Z</time></trkpt><trkpt lat="43.7817183" lon="11.2375917"><ele>46.0</ele><time>2026-04-12T09:41:31.921Z</time></trkpt><trkpt lat="43.7816467" lon="11.237665"><ele>46.5</ele><time>2026-04-12T09:41:33.922Z</time></trkpt><trkpt lat="43.7815767" lon="11.2377317"><ele>47.0</ele><time>2026-04-12T09:41:35.922Z</time></trkpt><trkpt lat="43.7814933" lon="11.237795"><ele>47.0</ele><time>2026-04-12T09:41:37.922Z</time></trkpt><trkpt lat="43.7814283" lon="11.2378617"><ele>47.0</ele><time>2026-04-12T09:41:39.921Z</time></trkpt><trkpt lat="43.7813733" lon="11.2379333"><ele>47.0</ele><time>2026-04-12T09:41:41.921Z</time></trkpt><trkpt lat="43.7813117" lon="11.2380067"><ele>47.0</ele><time>2026-04-12T09:41:43.921Z</time></trkpt><trkpt lat="43.7812433" lon="11.2380767"><ele>47.0</ele><time>2026-04-12T09:41:46.921Z</time></trkpt><trkpt lat="43.7811767" lon="11.2381433"><ele>47.0</ele><time>2026-04-12T09:41:49.921Z</time></trkpt><trkpt lat="43.781105" lon="11.2382233"><ele>47.0</ele><time>2026-04-12T09:41:52.922Z</time></trkpt><trkpt lat="43.7810517" lon="11.2382917"><ele>47.0</ele><time>2026-04-12T09:41:54.921Z</time></trkpt><trkpt lat="43.7809883" lon="11.23836"><ele>47.0</ele><time>2026-04-12T09:41:56.921Z</time></trkpt><trkpt lat="43.7809317" lon="11.2384167"><ele>47.0</ele><time>2026-04-12T09:41:58.921Z</time></trkpt><trkpt lat="43.7808817" lon="11.238485"><ele>47.0</ele><time>2026-04-12T09:42:00.921Z</time></trkpt><trkpt lat="43.7808317" lon="11.238545"><ele>47.0</ele><time>2026-04-12T09:42:02.921Z</time></trkpt><trkpt lat="43.7807733" lon="11.23862"><ele>47.0</ele><time>2026-04-12T09:42:05.922Z</time></trkpt><trkpt lat="43.7807283" lon="11.2386933"><ele>47.0</ele><time>2026-04-12T09:42:08.921Z</time></trkpt><trkpt lat="43.7806683" lon="11.238775"><ele>47.0</ele><time>2026-04-12T09:42:11.921Z</time></trkpt><trkpt lat="43.7806117" lon="11.23885"><ele>47.0</ele><time>2026-04-12T09:42:13.921Z</time></trkpt><trkpt lat="43.780555" lon="11.2389167"><ele>47.0</ele><time>2026-04-12T09:42:15.921Z</time></trkpt><trkpt lat="43.7805067" lon="11.23898"><ele>47.0</ele><time>2026-04-12T09:42:17.921Z</time></trkpt><trkpt lat="43.7804533" lon="11.2390567"><ele>47.0</ele><time>2026-04-12T09:42:19.921Z</time></trkpt><trkpt lat="43.78039" lon="11.23915"><ele>47.0</ele><time>2026-04-12T09:42:22.921Z</time></trkpt><trkpt lat="43.78034" lon="11.239215"><ele>47.0</ele><time>2026-04-12T09:42:26.921Z</time></trkpt><trkpt lat="43.7802933" lon="11.2392767"><ele>47.0</ele><time>2026-04-12T09:42:28.921Z</time></trkpt><trkpt lat="43.7802383" lon="11.23935"><ele>47.0</ele><time>2026-04-12T09:42:30.921Z</time></trkpt><trkpt lat="43.780175" lon="11.2394367"><ele>47.0</ele><time>2026-04-12T09:42:32.922Z</time></trkpt><trkpt lat="43.78011" lon="11.239495"><ele>47.0</ele><time>2026-04-12T09:42:34.922Z</time></trkpt><trkpt lat="43.7800517" lon="11.2395567"><ele>47.0</ele><time>2026-04-12T09:42:36.921Z</time></trkpt><trkpt lat="43.7799967" lon="11.239615"><ele>47.33333333333333</ele><time>2026-04-12T09:42:38.921Z</time></trkpt><trkpt lat="43.7799433" lon="11.2396883"><ele>47.666666666666664</ele><time>2026-04-12T09:42:40.922Z</time></trkpt><trkpt lat="43.7798967" lon="11.2397533"><ele>48.0</ele><time>2026-04-12T09:42:42.921Z</time></trkpt><trkpt lat="43.7798233" lon="11.2398517"><ele>48.33333333333333</ele><time>2026-04-12T09:42:45.921Z</time></trkpt><trkpt lat="43.77978" lon="11.239915"><ele>48.666666666666664</ele><time>2026-04-12T09:42:47.921Z</time></trkpt><trkpt lat="43.7797167" lon="11.2399883"><ele>49.0</ele><time>2026-04-12T09:42:50.921Z</time></trkpt><trkpt lat="43.77967" lon="11.2400483"><ele>49.142857142857146</ele><time>2026-04-12T09:42:52.921Z</time></trkpt><trkpt lat="43.779615" lon="11.2401017"><ele>49.285714285714285</ele><time>2026-04-12T09:42:54.921Z</time></trkpt><trkpt lat="43.77956" lon="11.240165"><ele>49.42857142857143</ele><time>2026-04-12T09:42:56.921Z</time></trkpt><trkpt lat="43.77951" lon="11.240225"><ele>49.57142857142857</ele><time>2026-04-12T09:42:58.921Z</time></trkpt><trkpt lat="43.7794367" lon="11.240325"><ele>49.714285714285715</ele><time>2026-04-12T09:43:01.922Z</time></trkpt><trkpt lat="43.7793783" lon="11.2403833"><ele>49.85714285714286</ele><time>2026-04-12T09:43:04.921Z</time></trkpt><trkpt lat="43.7793267" lon="11.2404417"><ele>50.0</ele><time>2026-04-12T09:43:06.922Z</time></trkpt><trkpt lat="43.77927" lon="11.24049"><ele>49.50000000000001</ele><time>2026-04-12T09:43:09.921Z</time></trkpt><trkpt lat="43.7792017" lon="11.2405183"><ele>49.0</ele><time>2026-04-12T09:43:14.921Z</time></trkpt><trkpt lat="43.779135" lon="11.24057"><ele>48.5</ele><time>2026-04-12T09:43:17.921Z</time></trkpt><trkpt lat="43.77911" lon="11.240655"><ele>48.0</ele><time>2026-04-12T09:43:21.921Z</time></trkpt><trkpt lat="43.77918" lon="11.2407383"><ele>47.5</ele><time>2026-04-12T09:43:24.921Z</time></trkpt><trkpt lat="43.7792467" lon="11.2407867"><ele>47.0</ele><time>2026-04-12T09:43:26.922Z</time></trkpt><trkpt lat="43.77931" lon="11.2408367"><ele>47.0</ele><time>2026-04-12T09:43:28.921Z</time></trkpt><trkpt lat="43.77938" lon="11.2408883"><ele>47.0</ele><time>2026-04-12T09:43:30.921Z</time></trkpt><trkpt lat="43.7794417" lon="11.24094"><ele>47.0</ele><time>2026-04-12T09:43:32.921Z</time></trkpt><trkpt lat="43.7795067" lon="11.2409867"><ele>47.0</ele><time>2026-04-12T09:43:34.921Z</time></trkpt><trkpt lat="43.7795683" lon="11.2410267"><ele>47.0</ele><time>2026-04-12T09:43:36.921Z</time></trkpt><trkpt lat="43.7796333" lon="11.241055"><ele>47.0</ele><time>2026-04-12T09:43:38.922Z</time></trkpt><trkpt lat="43.7796983" lon="11.241085"><ele>47.0</ele><time>2026-04-12T09:43:40.921Z</time></trkpt><trkpt lat="43.7797667" lon="11.24113"><ele>47.0</ele><time>2026-04-12T09:43:42.922Z</time></trkpt><trkpt lat="43.7798383" lon="11.241175"><ele>47.0</ele><time>2026-04-12T09:43:44.921Z</time></trkpt><trkpt lat="43.779915" lon="11.2412117"><ele>47.0</ele><time>2026-04-12T09:43:46.921Z</time></trkpt><trkpt lat="43.7799933" lon="11.2412567"><ele>47.0</ele><time>2026-04-12T09:43:48.921Z</time></trkpt><trkpt lat="43.7800667" lon="11.2412933"><ele>47.0</ele><time>2026-04-12T09:43:50.921Z</time></trkpt><trkpt lat="43.7801517" lon="11.24134"><ele>47.0</ele><time>2026-04-12T09:43:53.921Z</time></trkpt><trkpt lat="43.7802183" lon="11.241375"><ele>47.0</ele><time>2026-04-12T09:43:55.921Z</time></trkpt><trkpt lat="43.7802833" lon="11.24142"><ele>47.0</ele><time>2026-04-12T09:43:57.921Z</time></trkpt><trkpt lat="43.78035" lon="11.2414667"><ele>47.0</ele><time>2026-04-12T09:43:59.921Z</time></trkpt><trkpt lat="43.78042" lon="11.2415167"><ele>47.0</ele><time>2026-04-12T09:44:01.921Z</time></trkpt><trkpt lat="43.7804883" lon="11.2415367"><ele>47.0</ele><time>2026-04-12T09:44:03.921Z</time></trkpt><trkpt lat="43.7805517" lon="11.24157"><ele>47.0</ele><time>2026-04-12T09:44:05.921Z</time></trkpt><trkpt lat="43.7806167" lon="11.2416083"><ele>47.0</ele><time>2026-04-12T09:44:07.921Z</time></trkpt><trkpt lat="43.7806833" lon="11.2416583"><ele>46.857142857142854</ele><time>2026-04-12T09:44:09.922Z</time></trkpt><trkpt lat="43.780745" lon="11.2417"><ele>46.71428571428571</ele><time>2026-04-12T09:44:11.922Z</time></trkpt><trkpt lat="43.78083" lon="11.24175"><ele>46.57142857142857</ele><time>2026-04-12T09:44:14.922Z</time></trkpt><trkpt lat="43.7808933" lon="11.2418"><ele>46.42857142857143</ele><time>2026-04-12T09:44:16.921Z</time></trkpt><trkpt lat="43.78095" lon="11.24185"><ele>46.285714285714285</ele><time>2026-04-12T09:44:18.921Z</time></trkpt><trkpt lat="43.781005" lon="11.2419033"><ele>46.142857142857146</ele><time>2026-04-12T09:44:20.921Z</time></trkpt><trkpt lat="43.7810667" lon="11.2419533"><ele>46.0</ele><time>2026-04-12T09:44:22.922Z</time></trkpt><trkpt lat="43.7811383" lon="11.2420283"><ele>46.0</ele><time>2026-04-12T09:44:24.922Z</time></trkpt><trkpt lat="43.7812033" lon="11.242095"><ele>46.0</ele><time>2026-04-12T09:44:26.921Z</time></trkpt><trkpt lat="43.78126" lon="11.24216"><ele>46.0</ele><time>2026-04-12T09:44:28.921Z</time></trkpt><trkpt lat="43.7813133" lon="11.2422117"><ele>46.0</ele><time>2026-04-12T09:44:30.921Z</time></trkpt><trkpt lat="43.7813917" lon="11.2422483"><ele>46.0</ele><time>2026-04-12T09:44:33.921Z</time></trkpt><trkpt lat="43.781475" lon="11.24229"><ele>46.0</ele><time>2026-04-12T09:44:36.921Z</time></trkpt><trkpt lat="43.7815617" lon="11.2423333"><ele>46.0</ele><time>2026-04-12T09:44:39.921Z</time></trkpt><trkpt lat="43.7816317" lon="11.2423917"><ele>46.0</ele><time>2026-04-12T09:44:42.921Z</time></trkpt><trkpt lat="43.781685" lon="11.24244"><ele>46.0</ele><time>2026-04-12T09:44:44.921Z</time></trkpt><trkpt lat="43.7817433" lon="11.2424833"><ele>46.0</ele><time>2026-04-12T09:44:46.921Z</time></trkpt><trkpt lat="43.781805" lon="11.2425283"><ele>46.0</ele><time>2026-04-12T09:44:49.921Z</time></trkpt><trkpt lat="43.7818667" lon="11.2425833"><ele>46.0</ele><time>2026-04-12T09:44:56.921Z</time></trkpt><trkpt lat="43.7818483" lon="11.2426783"><ele>46.0</ele><time>2026-04-12T09:45:04.921Z</time></trkpt><trkpt lat="43.7818033" lon="11.2427567"><ele>46.0</ele><time>2026-04-12T09:45:08.922Z</time></trkpt><trkpt lat="43.781765" lon="11.242855"><ele>46.0</ele><time>2026-04-12T09:45:13.921Z</time></trkpt><trkpt lat="43.7817283" lon="11.242965"><ele>46.0</ele><time>2026-04-12T09:45:22.921Z</time></trkpt><trkpt lat="43.7817117" lon="11.2430567"><ele>46.0</ele><time>2026-04-12T09:45:26.921Z</time></trkpt><trkpt lat="43.7817633" lon="11.2431117"><ele>46.0</ele><time>2026-04-12T09:45:31.921Z</time></trkpt><trkpt lat="43.7818233" lon="11.2432"><ele>46.0</ele><time>2026-04-12T09:45:34.921Z</time></trkpt><trkpt lat="43.7818817" lon="11.2432683"><ele>46.333333333333336</ele><time>2026-04-12T09:45:37.921Z</time></trkpt><trkpt lat="43.7819267" lon="11.243355"><ele>46.66666666666667</ele><time>2026-04-12T09:45:40.921Z</time></trkpt><trkpt lat="43.78196" lon="11.243435"><ele>47.0</ele><time>2026-04-12T09:45:43.921Z</time></trkpt><trkpt lat="43.782005" lon="11.2435367"><ele>47.333333333333336</ele><time>2026-04-12T09:45:46.921Z</time></trkpt><trkpt lat="43.7820433" lon="11.243615"><ele>47.666666666666664</ele><time>2026-04-12T09:45:48.921Z</time></trkpt><trkpt lat="43.78211" lon="11.2436733"><ele>48.0</ele><time>2026-04-12T09:45:50.922Z</time></trkpt><trkpt lat="43.7821783" lon="11.243725"><ele>47.99999999999999</ele><time>2026-04-12T09:45:52.922Z</time></trkpt><trkpt lat="43.782235" lon="11.2437933"><ele>48.0</ele><time>2026-04-12T09:45:54.921Z</time></trkpt><trkpt lat="43.78229" lon="11.2438717"><ele>48.0</ele><time>2026-04-12T09:45:56.922Z</time></trkpt><trkpt lat="43.7823317" lon="11.2439517"><ele>48.0</ele><time>2026-04-12T09:45:58.921Z</time></trkpt><trkpt lat="43.7823683" lon="11.2440283"><ele>48.0</ele><time>2026-04-12T09:46:00.922Z</time></trkpt><trkpt lat="43.7824217" lon="11.2441033"><ele>47.99999999999999</ele><time>2026-04-12T09:46:02.921Z</time></trkpt><trkpt lat="43.7824667" lon="11.2441783"><ele>48.0</ele><time>2026-04-12T09:46:04.921Z</time></trkpt><trkpt lat="43.782515" lon="11.244255"><ele>48.166666666666664</ele><time>2026-04-12T09:46:06.921Z</time></trkpt><trkpt lat="43.7825733" lon="11.2443233"><ele>48.33333333333333</ele><time>2026-04-12T09:46:08.921Z</time></trkpt><trkpt lat="43.782625" lon="11.2443733"><ele>48.5</ele><time>2026-04-12T09:46:10.922Z</time></trkpt><trkpt lat="43.7826967" lon="11.2444417"><ele>48.666666666666664</ele><time>2026-04-12T09:46:13.921Z</time></trkpt><trkpt lat="43.7827467" lon="11.2445167"><ele>48.83333333333333</ele><time>2026-04-12T09:46:16.921Z</time></trkpt><trkpt lat="43.782795" lon="11.244615"><ele>49.0</ele><time>2026-04-12T09:46:20.921Z</time></trkpt><trkpt lat="43.7828017" lon="11.2447133"><ele>49.0</ele><time>2026-04-12T09:46:22.921Z</time></trkpt><trkpt lat="43.782835" lon="11.2448117"><ele>49.0</ele><time>2026-04-12T09:46:24.921Z</time></trkpt><trkpt lat="43.78284" lon="11.2449083"><ele>49.0</ele><time>2026-04-12T09:46:26.922Z</time></trkpt><trkpt lat="43.78287" lon="11.2450333"><ele>49.0</ele><time>2026-04-12T09:46:29.921Z</time></trkpt><trkpt lat="43.78298" lon="11.2452167"><ele>49.0</ele><time>2026-04-12T09:46:31.921Z</time></trkpt><trkpt lat="43.7830183" lon="11.24537"><ele>48.99999999999999</ele><time>2026-04-12T09:46:33.921Z</time></trkpt><trkpt lat="43.78302" lon="11.2454667"><ele>49.0</ele><time>2026-04-12T09:46:37.921Z</time></trkpt><trkpt lat="43.7830033" lon="11.2455517"><ele>49.0</ele><time>2026-04-12T09:46:39.922Z</time></trkpt><trkpt lat="43.78299" lon="11.2456833"><ele>49.0</ele><time>2026-04-12T09:46:42.921Z</time></trkpt><trkpt lat="43.782925" lon="11.24569"><ele>48.99999999999999</ele><time>2026-04-12T09:46:45.922Z</time></trkpt><trkpt lat="43.7828417" lon="11.24572"><ele>49.0</ele><time>2026-04-12T09:46:48.921Z</time></trkpt><trkpt lat="43.7827583" lon="11.2457317"><ele>48.33333333333333</ele><time>2026-04-12T09:46:51.921Z</time></trkpt><trkpt lat="43.78267" lon="11.2457267"><ele>47.666666666666664</ele><time>2026-04-12T09:46:54.921Z</time></trkpt><trkpt lat="43.782585" lon="11.2457133"><ele>47.0</ele><time>2026-04-12T09:46:57.921Z</time></trkpt><trkpt lat="43.782495" lon="11.2457217"><ele>46.33333333333333</ele><time>2026-04-12T09:47:00.921Z</time></trkpt><trkpt lat="43.7823967" lon="11.2457417"><ele>45.666666666666664</ele><time>2026-04-12T09:47:03.921Z</time></trkpt><trkpt lat="43.7823217" lon="11.2457633"><ele>45.0</ele><time>2026-04-12T09:47:05.921Z</time></trkpt><trkpt lat="43.7822517" lon="11.2457967"><ele>45.0</ele><time>2026-04-12T09:47:07.921Z</time></trkpt><trkpt lat="43.782175" lon="11.2458267"><ele>45.0</ele><time>2026-04-12T09:47:09.921Z</time></trkpt><trkpt lat="43.782095" lon="11.2458617"><ele>45.0</ele><time>2026-04-12T09:47:11.921Z</time></trkpt><trkpt lat="43.7820083" lon="11.245895"><ele>45.0</ele><time>2026-04-12T09:47:13.921Z</time></trkpt><trkpt lat="43.7819267" lon="11.2459317"><ele>45.0</ele><time>2026-04-12T09:47:15.921Z</time></trkpt><trkpt lat="43.78185" lon="11.2459883"><ele>45.0</ele><time>2026-04-12T09:47:17.921Z</time></trkpt><trkpt lat="43.7817767" lon="11.2460383"><ele>45.5</ele><time>2026-04-12T09:47:19.922Z</time></trkpt><trkpt lat="43.781695" lon="11.24608"><ele>46.0</ele><time>2026-04-12T09:47:21.921Z</time></trkpt><trkpt lat="43.781625" lon="11.2461233"><ele>46.5</ele><time>2026-04-12T09:47:23.922Z</time></trkpt><trkpt lat="43.7815533" lon="11.24617"><ele>47.0</ele><time>2026-04-12T09:47:25.921Z</time></trkpt><trkpt lat="43.7814767" lon="11.2462233"><ele>47.5</ele><time>2026-04-12T09:47:27.921Z</time></trkpt><trkpt lat="43.7813983" lon="11.2462783"><ele>48.0</ele><time>2026-04-12T09:47:29.921Z</time></trkpt><trkpt lat="43.78132" lon="11.2463383"><ele>48.0</ele><time>2026-04-12T09:47:31.922Z</time></trkpt><trkpt lat="43.78124" lon="11.2463817"><ele>48.0</ele><time>2026-04-12T09:47:33.921Z</time></trkpt><trkpt lat="43.7811717" lon="11.2464167"><ele>48.0</ele><time>2026-04-12T09:47:35.921Z</time></trkpt><trkpt lat="43.7811033" lon="11.246455"><ele>48.0</ele><time>2026-04-12T09:47:37.921Z</time></trkpt><trkpt lat="43.7810333" lon="11.246495"><ele>48.0</ele><time>2026-04-12T09:47:39.921Z</time></trkpt><trkpt lat="43.7809617" lon="11.2465367"><ele>48.0</ele><time>2026-04-12T09:47:41.921Z</time></trkpt><trkpt lat="43.780885" lon="11.2465867"><ele>47.666666666666664</ele><time>2026-04-12T09:47:43.921Z</time></trkpt><trkpt lat="43.7808067" lon="11.24663"><ele>47.333333333333336</ele><time>2026-04-12T09:47:45.922Z</time></trkpt><trkpt lat="43.780725" lon="11.2466733"><ele>47.0</ele><time>2026-04-12T09:47:47.921Z</time></trkpt><trkpt lat="43.7806433" lon="11.2467233"><ele>46.66666666666667</ele><time>2026-04-12T09:47:49.921Z</time></trkpt><trkpt lat="43.78056" lon="11.2467767"><ele>46.333333333333336</ele><time>2026-04-12T09:47:51.921Z</time></trkpt><trkpt lat="43.780475" lon="11.246825"><ele>46.0</ele><time>2026-04-12T09:47:53.921Z</time></trkpt><trkpt lat="43.7803967" lon="11.2468933"><ele>46.0</ele><time>2026-04-12T09:47:55.921Z</time></trkpt><trkpt lat="43.7803317" lon="11.2469817"><ele>46.0</ele><time>2026-04-12T09:47:57.921Z</time></trkpt><trkpt lat="43.78026" lon="11.2470567"><ele>46.0</ele><time>2026-04-12T09:47:59.921Z</time></trkpt><trkpt lat="43.78017" lon="11.2470933"><ele>46.0</ele><time>2026-04-12T09:48:01.921Z</time></trkpt><trkpt lat="43.7800633" lon="11.2471133"><ele>46.0</ele><time>2026-04-12T09:48:03.921Z</time></trkpt><trkpt lat="43.7799567" lon="11.247135"><ele>46.142857142857146</ele><time>2026-04-12T09:48:05.921Z</time></trkpt><trkpt lat="43.7798667" lon="11.2471717"><ele>46.285714285714285</ele><time>2026-04-12T09:48:07.921Z</time></trkpt><trkpt lat="43.7798517" lon="11.2472567"><ele>46.42857142857143</ele><time>2026-04-12T09:48:09.922Z</time></trkpt><trkpt lat="43.779885" lon="11.2473333"><ele>46.57142857142857</ele><time>2026-04-12T09:48:11.921Z</time></trkpt><trkpt lat="43.7799217" lon="11.2474333"><ele>46.71428571428571</ele><time>2026-04-12T09:48:14.922Z</time></trkpt><trkpt lat="43.7799533" lon="11.2475167"><ele>46.857142857142854</ele><time>2026-04-12T09:48:17.922Z</time></trkpt><trkpt lat="43.77999" lon="11.247605"><ele>47.0</ele><time>2026-04-12T09:48:20.921Z</time></trkpt><trkpt lat="43.7800133" lon="11.2476967"><ele>47.33333333333333</ele><time>2026-04-12T09:48:23.921Z</time></trkpt><trkpt lat="43.7800467" lon="11.2477783"><ele>47.666666666666664</ele><time>2026-04-12T09:48:26.921Z</time></trkpt><trkpt lat="43.780085" lon="11.247855"><ele>48.0</ele><time>2026-04-12T09:48:29.922Z</time></trkpt><trkpt lat="43.7801283" lon="11.2479617"><ele>48.33333333333333</ele><time>2026-04-12T09:48:33.921Z</time></trkpt><trkpt lat="43.7801567" lon="11.24807"><ele>48.666666666666664</ele><time>2026-04-12T09:48:36.921Z</time></trkpt><trkpt lat="43.7801833" lon="11.2481817"><ele>49.0</ele><time>2026-04-12T09:48:39.921Z</time></trkpt><trkpt lat="43.7802133" lon="11.24828"><ele>49.166666666666664</ele><time>2026-04-12T09:48:42.921Z</time></trkpt><trkpt lat="43.7802467" lon="11.248365"><ele>49.33333333333333</ele><time>2026-04-12T09:48:45.921Z</time></trkpt><trkpt lat="43.7802783" lon="11.2484717"><ele>49.5</ele><time>2026-04-12T09:48:48.921Z</time></trkpt><trkpt lat="43.7803183" lon="11.2485817"><ele>49.66666666666667</ele><time>2026-04-12T09:48:51.921Z</time></trkpt><trkpt lat="43.78035" lon="11.2486583"><ele>49.833333333333336</ele><time>2026-04-12T09:48:53.921Z</time></trkpt><trkpt lat="43.7803867" lon="11.2487667"><ele>50.0</ele><time>2026-04-12T09:48:56.921Z</time></trkpt><trkpt lat="43.7804017" lon="11.2488683"><ele>49.833333333333336</ele><time>2026-04-12T09:48:59.922Z</time></trkpt><trkpt lat="43.7804017" lon="11.248965"><ele>49.66666666666667</ele><time>2026-04-12T09:49:03.922Z</time></trkpt><trkpt lat="43.7803317" lon="11.24902"><ele>49.5</ele><time>2026-04-12T09:49:06.921Z</time></trkpt><trkpt lat="43.780265" lon="11.2490367"><ele>49.33333333333333</ele><time>2026-04-12T09:49:09.922Z</time></trkpt><trkpt lat="43.780205" lon="11.2490717"><ele>49.166666666666664</ele><time>2026-04-12T09:49:12.921Z</time></trkpt><trkpt lat="43.7801217" lon="11.2491483"><ele>49.0</ele><time>2026-04-12T09:49:15.922Z</time></trkpt><trkpt lat="43.7801467" lon="11.2492583"><ele>48.99999999999999</ele><time>2026-04-12T09:49:18.921Z</time></trkpt><trkpt lat="43.7801583" lon="11.2493633"><ele>49.0</ele><time>2026-04-12T09:49:21.921Z</time></trkpt><trkpt lat="43.780145" lon="11.2494717"><ele>49.0</ele><time>2026-04-12T09:49:24.922Z</time></trkpt><trkpt lat="43.7801283" lon="11.24958"><ele>49.0</ele><time>2026-04-12T09:49:27.921Z</time></trkpt><trkpt lat="43.780095" lon="11.2496683"><ele>48.99999999999999</ele><time>2026-04-12T09:49:29.921Z</time></trkpt><trkpt lat="43.7800583" lon="11.2497433"><ele>49.0</ele><time>2026-04-12T09:49:31.921Z</time></trkpt><trkpt lat="43.779995" lon="11.2498083"><ele>49.166666666666664</ele><time>2026-04-12T09:49:34.922Z</time></trkpt><trkpt lat="43.7799317" lon="11.2498617"><ele>49.33333333333333</ele><time>2026-04-12T09:49:36.921Z</time></trkpt><trkpt lat="43.7798683" lon="11.2498833"><ele>49.5</ele><time>2026-04-12T09:49:38.921Z</time></trkpt><trkpt lat="43.7797917" lon="11.249925"><ele>49.66666666666667</ele><time>2026-04-12T09:49:41.921Z</time></trkpt><trkpt lat="43.7797067" lon="11.249965"><ele>49.833333333333336</ele><time>2026-04-12T09:49:44.922Z</time></trkpt><trkpt lat="43.779615" lon="11.2499917"><ele>50.0</ele><time>2026-04-12T09:49:47.922Z</time></trkpt><trkpt lat="43.779525" lon="11.250045"><ele>50.00000000000001</ele><time>2026-04-12T09:49:50.922Z</time></trkpt><trkpt lat="43.77946" lon="11.2500917"><ele>50.0</ele><time>2026-04-12T09:49:53.921Z</time></trkpt><trkpt lat="43.779405" lon="11.2501467"><ele>50.0</ele><time>2026-04-12T09:49:55.921Z</time></trkpt><trkpt lat="43.7793567" lon="11.2502317"><ele>50.0</ele><time>2026-04-12T09:49:58.921Z</time></trkpt><trkpt lat="43.77931" lon="11.2503017"><ele>50.00000000000001</ele><time>2026-04-12T09:50:01.921Z</time></trkpt><trkpt lat="43.77925" lon="11.2504017"><ele>50.0</ele><time>2026-04-12T09:50:03.921Z</time></trkpt><trkpt lat="43.7791967" lon="11.2505083"><ele>50.16666666666667</ele><time>2026-04-12T09:50:06.921Z</time></trkpt><trkpt lat="43.7791617" lon="11.250595"><ele>50.333333333333336</ele><time>2026-04-12T09:50:08.921Z</time></trkpt><trkpt lat="43.7791283" lon="11.2506833"><ele>50.5</ele><time>2026-04-12T09:50:10.921Z</time></trkpt><trkpt lat="43.7790833" lon="11.2507917"><ele>50.66666666666667</ele><time>2026-04-12T09:50:13.921Z</time></trkpt><trkpt lat="43.7790517" lon="11.25087"><ele>50.833333333333336</ele><time>2026-04-12T09:50:15.921Z</time></trkpt><trkpt lat="43.7790033" lon="11.2509783"><ele>51.0</ele><time>2026-04-12T09:50:18.921Z</time></trkpt><trkpt lat="43.7789567" lon="11.2510667"><ele>51.333333333333336</ele><time>2026-04-12T09:50:20.921Z</time></trkpt><trkpt lat="43.7789233" lon="11.2511733"><ele>51.66666666666667</ele><time>2026-04-12T09:50:22.922Z</time></trkpt><trkpt lat="43.7788967" lon="11.2512733"><ele>52.0</ele><time>2026-04-12T09:50:24.921Z</time></trkpt><trkpt lat="43.778875" lon="11.2513667"><ele>52.333333333333336</ele><time>2026-04-12T09:50:26.921Z</time></trkpt><trkpt lat="43.778855" lon="11.25145"><ele>52.66666666666667</ele><time>2026-04-12T09:50:28.922Z</time></trkpt><trkpt lat="43.778825" lon="11.2515517"><ele>53.0</ele><time>2026-04-12T09:50:30.921Z</time></trkpt><trkpt lat="43.77879" lon="11.2516633"><ele>53.333333333333336</ele><time>2026-04-12T09:50:32.922Z</time></trkpt><trkpt lat="43.7787583" lon="11.2517633"><ele>53.66666666666667</ele><time>2026-04-12T09:50:34.921Z</time></trkpt><trkpt lat="43.778735" lon="11.25187"><ele>54.0</ele><time>2026-04-12T09:50:36.922Z</time></trkpt><trkpt lat="43.7787083" lon="11.251975"><ele>54.33333333333333</ele><time>2026-04-12T09:50:38.921Z</time></trkpt><trkpt lat="43.7786717" lon="11.2520783"><ele>54.666666666666664</ele><time>2026-04-12T09:50:40.922Z</time></trkpt><trkpt lat="43.7786367" lon="11.2521783"><ele>55.0</ele><time>2026-04-12T09:50:42.921Z</time></trkpt><trkpt lat="43.77861" lon="11.2522683"><ele>55.166666666666664</ele><time>2026-04-12T09:50:44.921Z</time></trkpt><trkpt lat="43.7785817" lon="11.2523617"><ele>55.33333333333333</ele><time>2026-04-12T09:50:46.921Z</time></trkpt><trkpt lat="43.778555" lon="11.2524533"><ele>55.5</ele><time>2026-04-12T09:50:48.921Z</time></trkpt><trkpt lat="43.77852" lon="11.252545"><ele>55.66666666666667</ele><time>2026-04-12T09:50:51.921Z</time></trkpt><trkpt lat="43.7784783" lon="11.252635"><ele>55.833333333333336</ele><time>2026-04-12T09:50:53.922Z</time></trkpt><trkpt lat="43.7784417" lon="11.2527267"><ele>56.0</ele><time>2026-04-12T09:50:55.921Z</time></trkpt><trkpt lat="43.7784033" lon="11.2528333"><ele>55.57142857142857</ele><time>2026-04-12T09:50:58.921Z</time></trkpt><trkpt lat="43.7783767" lon="11.2529233"><ele>55.14285714285714</ele><time>2026-04-12T09:51:01.921Z</time></trkpt><trkpt lat="43.77835" lon="11.2530083"><ele>54.714285714285715</ele><time>2026-04-12T09:51:04.921Z</time></trkpt><trkpt lat="43.7783183" lon="11.25309"><ele>54.285714285714285</ele><time>2026-04-12T09:51:08.921Z</time></trkpt><trkpt lat="43.77828" lon="11.2531867"><ele>53.857142857142854</ele><time>2026-04-12T09:51:12.921Z</time></trkpt><trkpt lat="43.7782433" lon="11.2532667"><ele>53.42857142857143</ele><time>2026-04-12T09:51:14.921Z</time></trkpt><trkpt lat="43.7781983" lon="11.2533683"><ele>53.0</ele><time>2026-04-12T09:51:17.921Z</time></trkpt><trkpt lat="43.77815" lon="11.2534767"><ele>53.00000000000001</ele><time>2026-04-12T09:51:20.921Z</time></trkpt><trkpt lat="43.7781133" lon="11.2535583"><ele>53.0</ele><time>2026-04-12T09:51:22.922Z</time></trkpt><trkpt lat="43.778075" lon="11.2536417"><ele>53.0</ele><time>2026-04-12T09:51:24.922Z</time></trkpt><trkpt lat="43.77803" lon="11.2537367"><ele>53.0</ele><time>2026-04-12T09:51:26.921Z</time></trkpt><trkpt lat="43.7779917" lon="11.2538233"><ele>53.00000000000001</ele><time>2026-04-12T09:51:28.921Z</time></trkpt><trkpt lat="43.7779533" lon="11.2539117"><ele>53.0</ele><time>2026-04-12T09:51:30.922Z</time></trkpt><trkpt lat="43.7779117" lon="11.2540083"><ele>53.142857142857146</ele><time>2026-04-12T09:51:32.921Z</time></trkpt><trkpt lat="43.777885" lon="11.2541033"><ele>53.285714285714285</ele><time>2026-04-12T09:51:34.921Z</time></trkpt><trkpt lat="43.777855" lon="11.25418"><ele>53.42857142857143</ele><time>2026-04-12T09:51:36.921Z</time></trkpt><trkpt lat="43.7778067" lon="11.2542617"><ele>53.57142857142857</ele><time>2026-04-12T09:51:39.921Z</time></trkpt><trkpt lat="43.7777833" lon="11.2543483"><ele>53.71428571428571</ele><time>2026-04-12T09:51:43.921Z</time></trkpt><trkpt lat="43.7777583" lon="11.2544367"><ele>53.857142857142854</ele><time>2026-04-12T09:51:46.921Z</time></trkpt><trkpt lat="43.777725" lon="11.2545433"><ele>54.0</ele><time>2026-04-12T09:51:49.921Z</time></trkpt><trkpt lat="43.77769" lon="11.254635"><ele>54.0</ele><time>2026-04-12T09:51:51.921Z</time></trkpt><trkpt lat="43.77765" lon="11.25473"><ele>54.0</ele><time>2026-04-12T09:51:54.922Z</time></trkpt><trkpt lat="43.7776083" lon="11.25483"><ele>54.0</ele><time>2026-04-12T09:51:57.921Z</time></trkpt><trkpt lat="43.777565" lon="11.25493"><ele>54.0</ele><time>2026-04-12T09:51:59.921Z</time></trkpt><trkpt lat="43.7775167" lon="11.2550417"><ele>54.0</ele><time>2026-04-12T09:52:01.921Z</time></trkpt><trkpt lat="43.777475" lon="11.2551317"><ele>54.0</ele><time>2026-04-12T09:52:03.922Z</time></trkpt><trkpt lat="43.7774383" lon="11.2552167"><ele>54.14285714285714</ele><time>2026-04-12T09:52:05.921Z</time></trkpt><trkpt lat="43.7773967" lon="11.2553183"><ele>54.285714285714285</ele><time>2026-04-12T09:52:08.921Z</time></trkpt><trkpt lat="43.7773533" lon="11.2554217"><ele>54.42857142857143</ele><time>2026-04-12T09:52:11.921Z</time></trkpt><trkpt lat="43.77732" lon="11.2555"><ele>54.57142857142857</ele><time>2026-04-12T09:52:13.921Z</time></trkpt><trkpt lat="43.7772867" lon="11.255575"><ele>54.714285714285715</ele><time>2026-04-12T09:52:15.921Z</time></trkpt><trkpt lat="43.7772517" lon="11.2556567"><ele>54.857142857142854</ele><time>2026-04-12T09:52:17.921Z</time></trkpt><trkpt lat="43.7772283" lon="11.2557433"><ele>55.0</ele><time>2026-04-12T09:52:19.921Z</time></trkpt><trkpt lat="43.7771983" lon="11.2558317"><ele>55.28571428571428</ele><time>2026-04-12T09:52:21.921Z</time></trkpt><trkpt lat="43.777155" lon="11.2559333"><ele>55.57142857142857</ele><time>2026-04-12T09:52:23.921Z</time></trkpt><trkpt lat="43.77713" lon="11.2560167"><ele>55.857142857142854</ele><time>2026-04-12T09:52:25.922Z</time></trkpt><trkpt lat="43.77711" lon="11.2561033"><ele>56.14285714285714</ele><time>2026-04-12T09:52:27.921Z</time></trkpt><trkpt lat="43.7770867" lon="11.25619"><ele>56.42857142857142</ele><time>2026-04-12T09:52:29.921Z</time></trkpt><trkpt lat="43.777065" lon="11.2562733"><ele>56.71428571428571</ele><time>2026-04-12T09:52:31.921Z</time></trkpt><trkpt lat="43.7770417" lon="11.25638"><ele>57.0</ele><time>2026-04-12T09:52:34.921Z</time></trkpt><trkpt lat="43.77701" lon="11.2564717"><ele>57.333333333333336</ele><time>2026-04-12T09:52:36.921Z</time></trkpt><trkpt lat="43.7769767" lon="11.2565483"><ele>57.66666666666667</ele><time>2026-04-12T09:52:38.921Z</time></trkpt><trkpt lat="43.77693" lon="11.256655"><ele>58.0</ele><time>2026-04-12T09:52:41.922Z</time></trkpt><trkpt lat="43.7768917" lon="11.256745"><ele>58.333333333333336</ele><time>2026-04-12T09:52:44.921Z</time></trkpt><trkpt lat="43.7768583" lon="11.2568417"><ele>58.66666666666667</ele><time>2026-04-12T09:52:47.921Z</time></trkpt><trkpt lat="43.7768383" lon="11.25693"><ele>59.0</ele><time>2026-04-12T09:52:50.922Z</time></trkpt><trkpt lat="43.7768367" lon="11.2570417"><ele>59.16666666666667</ele><time>2026-04-12T09:52:54.921Z</time></trkpt><trkpt lat="43.7768133" lon="11.257135"><ele>59.333333333333336</ele><time>2026-04-12T09:52:58.921Z</time></trkpt><trkpt lat="43.7767883" lon="11.2572217"><ele>59.5</ele><time>2026-04-12T09:53:01.921Z</time></trkpt><trkpt lat="43.7767417" lon="11.2573133"><ele>59.66666666666667</ele><time>2026-04-12T09:53:05.921Z</time></trkpt><trkpt lat="43.7766983" lon="11.2574183"><ele>59.833333333333336</ele><time>2026-04-12T09:53:09.922Z</time></trkpt><trkpt lat="43.7766633" lon="11.25755"><ele>60.0</ele><time>2026-04-12T09:53:12.921Z</time></trkpt><trkpt lat="43.7766417" lon="11.2576333"><ele>59.666666666666664</ele><time>2026-04-12T09:53:14.921Z</time></trkpt><trkpt lat="43.7766233" lon="11.25773"><ele>59.33333333333333</ele><time>2026-04-12T09:53:17.922Z</time></trkpt><trkpt lat="43.7765933" lon="11.2578283"><ele>59.0</ele><time>2026-04-12T09:53:19.921Z</time></trkpt><trkpt lat="43.7765417" lon="11.25791"><ele>58.666666666666664</ele><time>2026-04-12T09:53:21.921Z</time></trkpt><trkpt lat="43.7765133" lon="11.2580033"><ele>58.33333333333333</ele><time>2026-04-12T09:53:24.921Z</time></trkpt><trkpt lat="43.77647" lon="11.2581267"><ele>58.0</ele><time>2026-04-12T09:53:27.921Z</time></trkpt><trkpt lat="43.77644" lon="11.25822"><ele>57.83333333333333</ele><time>2026-04-12T09:53:30.922Z</time></trkpt><trkpt lat="43.7764117" lon="11.2583267"><ele>57.666666666666664</ele><time>2026-04-12T09:53:34.921Z</time></trkpt><trkpt lat="43.7763667" lon="11.25845"><ele>57.5</ele><time>2026-04-12T09:53:37.921Z</time></trkpt><trkpt lat="43.776315" lon="11.2585567"><ele>57.33333333333333</ele><time>2026-04-12T09:53:40.921Z</time></trkpt><trkpt lat="43.7762683" lon="11.2586383"><ele>57.166666666666664</ele><time>2026-04-12T09:53:42.921Z</time></trkpt><trkpt lat="43.776225" lon="11.2587033"><ele>57.0</ele><time>2026-04-12T09:53:44.921Z</time></trkpt><trkpt lat="43.7761883" lon="11.2588017"><ele>57.0</ele><time>2026-04-12T09:53:47.921Z</time></trkpt><trkpt lat="43.776145" lon="11.2588967"><ele>57.0</ele><time>2026-04-12T09:53:50.921Z</time></trkpt><trkpt lat="43.7761083" lon="11.2589767"><ele>57.0</ele><time>2026-04-12T09:53:52.921Z</time></trkpt><trkpt lat="43.77607" lon="11.2590667"><ele>57.0</ele><time>2026-04-12T09:53:54.921Z</time></trkpt><trkpt lat="43.7760167" lon="11.25919"><ele>57.0</ele><time>2026-04-12T09:53:57.921Z</time></trkpt><trkpt lat="43.77598" lon="11.2592783"><ele>57.0</ele><time>2026-04-12T09:54:00.921Z</time></trkpt><trkpt lat="43.7759483" lon="11.259355"><ele>57.6</ele><time>2026-04-12T09:54:02.922Z</time></trkpt><trkpt lat="43.7758983" lon="11.25944"><ele>58.2</ele><time>2026-04-12T09:54:05.922Z</time></trkpt><trkpt lat="43.77585" lon="11.2595733"><ele>58.8</ele><time>2026-04-12T09:54:08.921Z</time></trkpt><trkpt lat="43.77579" lon="11.259715"><ele>59.4</ele><time>2026-04-12T09:54:10.922Z</time></trkpt><trkpt lat="43.7757067" lon="11.25979"><ele>60.0</ele><time>2026-04-12T09:54:13.921Z</time></trkpt><trkpt lat="43.7756533" lon="11.2598717"><ele>60.166666666666664</ele><time>2026-04-12T09:54:16.921Z</time></trkpt><trkpt lat="43.7755883" lon="11.2599717"><ele>60.33333333333333</ele><time>2026-04-12T09:54:19.921Z</time></trkpt><trkpt lat="43.7755417" lon="11.2600467"><ele>60.5</ele><time>2026-04-12T09:54:21.921Z</time></trkpt><trkpt lat="43.7754883" lon="11.260125"><ele>60.666666666666664</ele><time>2026-04-12T09:54:24.922Z</time></trkpt><trkpt lat="43.7754367" lon="11.2602083"><ele>60.83333333333333</ele><time>2026-04-12T09:54:26.922Z</time></trkpt><trkpt lat="43.77537" lon="11.260315"><ele>61.0</ele><time>2026-04-12T09:54:29.921Z</time></trkpt><trkpt lat="43.77532" lon="11.2603767"><ele>60.99999999999999</ele><time>2026-04-12T09:54:31.921Z</time></trkpt><trkpt lat="43.77526" lon="11.260485"><ele>61.0</ele><time>2026-04-12T09:54:34.922Z</time></trkpt><trkpt lat="43.7751983" lon="11.2605917"><ele>61.0</ele><time>2026-04-12T09:54:37.921Z</time></trkpt><trkpt lat="43.7751667" lon="11.26068"><ele>61.0</ele><time>2026-04-12T09:54:39.921Z</time></trkpt><trkpt lat="43.775135" lon="11.2607883"><ele>60.99999999999999</ele><time>2026-04-12T09:54:41.922Z</time></trkpt><trkpt lat="43.7751067" lon="11.2608833"><ele>61.0</ele><time>2026-04-12T09:54:43.922Z</time></trkpt><trkpt lat="43.775065" lon="11.2609633"><ele>59.83333333333333</ele><time>2026-04-12T09:54:45.921Z</time></trkpt><trkpt lat="43.775025" lon="11.261045"><ele>58.666666666666664</ele><time>2026-04-12T09:54:47.921Z</time></trkpt><trkpt lat="43.7749783" lon="11.2611383"><ele>57.5</ele><time>2026-04-12T09:54:49.922Z</time></trkpt><trkpt lat="43.774935" lon="11.261225"><ele>56.33333333333333</ele><time>2026-04-12T09:54:51.921Z</time></trkpt><trkpt lat="43.7748783" lon="11.26134"><ele>55.166666666666664</ele><time>2026-04-12T09:54:54.921Z</time></trkpt><trkpt lat="43.7748317" lon="11.2614383"><ele>54.0</ele><time>2026-04-12T09:54:57.921Z</time></trkpt><trkpt lat="43.7747967" lon="11.2615133"><ele>54.0</ele><time>2026-04-12T09:54:59.921Z</time></trkpt><trkpt lat="43.7747533" lon="11.2616133"><ele>54.0</ele><time>2026-04-12T09:55:02.922Z</time></trkpt><trkpt lat="43.774715" lon="11.2617017"><ele>54.0</ele><time>2026-04-12T09:55:05.921Z</time></trkpt><trkpt lat="43.77467" lon="11.261805"><ele>54.0</ele><time>2026-04-12T09:55:08.921Z</time></trkpt><trkpt lat="43.774625" lon="11.2619067"><ele>54.0</ele><time>2026-04-12T09:55:11.921Z</time></trkpt><trkpt lat="43.7745767" lon="11.2620133"><ele>54.0</ele><time>2026-04-12T09:55:14.922Z</time></trkpt><trkpt lat="43.7745433" lon="11.26209"><ele>54.0</ele><time>2026-04-12T09:55:16.921Z</time></trkpt><trkpt lat="43.7744917" lon="11.2622033"><ele>54.0</ele><time>2026-04-12T09:55:19.921Z</time></trkpt><trkpt lat="43.7744483" lon="11.2623017"><ele>54.0</ele><time>2026-04-12T09:55:22.921Z</time></trkpt><trkpt lat="43.7744017" lon="11.2624067"><ele>54.0</ele><time>2026-04-12T09:55:25.922Z</time></trkpt><trkpt lat="43.7743617" lon="11.262515"><ele>54.0</ele><time>2026-04-12T09:55:28.921Z</time></trkpt><trkpt lat="43.7743383" lon="11.2626217"><ele>54.0</ele><time>2026-04-12T09:55:31.921Z</time></trkpt><trkpt lat="43.7743017" lon="11.26272"><ele>54.5</ele><time>2026-04-12T09:55:34.921Z</time></trkpt><trkpt lat="43.7742667" lon="11.2628"><ele>55.0</ele><time>2026-04-12T09:55:35.921Z</time></trkpt><trkpt lat="43.774255" lon="11.2628933"><ele>55.5</ele><time>2026-04-12T09:55:40.921Z</time></trkpt><trkpt lat="43.774225" lon="11.26298"><ele>56.0</ele><time>2026-04-12T09:55:42.921Z</time></trkpt><trkpt lat="43.7741817" lon="11.2630433"><ele>56.5</ele><time>2026-04-12T09:55:45.922Z</time></trkpt><trkpt lat="43.7741328" lon="11.2629404"><ele>57.0</ele><time>2026-04-12T10:03:17.218Z</time></trkpt><trkpt lat="43.7739867" lon="11.2623967"><ele>57.0</ele><time>2026-04-12T10:04:36.926Z</time></trkpt><trkpt lat="43.7739483" lon="11.2625067"><ele>57.0</ele><time>2026-04-12T10:04:39.926Z</time></trkpt><trkpt lat="43.7739417" lon="11.262605"><ele>57.0</ele><time>2026-04-12T10:04:42.927Z</time></trkpt><trkpt lat="43.7741976" lon="11.2628268"><ele>57.0</ele><time>2026-04-12T10:04:52.612Z</time></trkpt><trkpt lat="43.773615" lon="11.2629483"><ele>57.0</ele><time>2026-04-12T10:06:03.925Z</time></trkpt><trkpt lat="43.7736433" lon="11.2630433"><ele>57.0</ele><time>2026-04-12T10:06:06.926Z</time></trkpt><trkpt lat="43.77376" lon="11.2631"><ele>57.0</ele><time>2026-04-12T10:06:09.925Z</time></trkpt><trkpt lat="43.7738367" lon="11.2631383"><ele>57.0</ele><time>2026-04-12T10:06:11.926Z</time></trkpt><trkpt lat="43.7739683" lon="11.26311"><ele>57.0</ele><time>2026-04-12T10:06:40.925Z</time></trkpt><trkpt lat="43.774095" lon="11.263135"><ele>57.0</ele><time>2026-04-12T10:06:45.925Z</time></trkpt><trkpt lat="43.7741633" lon="11.2631217"><ele>56.99999999999999</ele><time>2026-04-12T10:06:52.925Z</time></trkpt><trkpt lat="43.7742233" lon="11.263065"><ele>57.0</ele><time>2026-04-12T10:06:57.925Z</time></trkpt><trkpt lat="43.7742983" lon="11.2630367"><ele>57.0</ele><time>2026-04-12T10:07:03.925Z</time></trkpt><trkpt lat="43.77436" lon="11.263065"><ele>56.99999999999999</ele><time>2026-04-12T10:07:12.925Z</time></trkpt><trkpt lat="43.7742933" lon="11.2630667"><ele>57.0</ele><time>2026-04-12T10:08:21.925Z</time></trkpt><trkpt lat="43.7742617" lon="11.26299"><ele>57.0</ele><time>2026-04-12T10:08:40.925Z</time></trkpt><trkpt lat="43.7743033" lon="11.2629"><ele>57.0</ele><time>2026-04-12T10:10:59.925Z</time></trkpt><trkpt lat="43.7742433" lon="11.26294"><ele>57.0</ele><time>2026-04-12T10:11:54.925Z</time></trkpt><trkpt lat="43.7742083" lon="11.2628667"><ele>57.0</ele><time>2026-04-12T10:12:40.925Z</time></trkpt><trkpt lat="43.7746233" lon="11.263615"><ele>57.0</ele><time>2026-04-12T10:15:22.925Z</time></trkpt><trkpt lat="43.7746617" lon="11.2635267"><ele>57.0</ele><time>2026-04-12T10:15:26.924Z</time></trkpt><trkpt lat="43.77458" lon="11.2634867"><ele>57.0</ele><time>2026-04-12T10:15:31.924Z</time></trkpt><trkpt lat="43.7746467" lon="11.2634667"><ele>57.0</ele><time>2026-04-12T10:15:39.924Z</time></trkpt><trkpt lat="43.7746" lon="11.2633783"><ele>57.0</ele><time>2026-04-12T10:15:43.924Z</time></trkpt><trkpt lat="43.7746633" lon="11.263365"><ele>57.0</ele><time>2026-04-12T10:15:49.924Z</time></trkpt><trkpt lat="43.7742039" lon="11.262827"><ele>57.0</ele><time>2026-04-12T10:16:03.993Z</time></trkpt><trkpt lat="43.774195" lon="11.263035"><ele>57.0</ele><time>2026-04-12T10:16:20.926Z</time></trkpt><trkpt lat="43.7740933" lon="11.2629833"><ele>57.0</ele><time>2026-04-12T10:16:33.925Z</time></trkpt><trkpt lat="43.77401" lon="11.2629983"><ele>57.0</ele><time>2026-04-12T10:16:38.925Z</time></trkpt><trkpt lat="43.7740933" lon="11.26303"><ele>57.0</ele><time>2026-04-12T10:16:46.926Z</time></trkpt><trkpt lat="43.7741733" lon="11.2630933"><ele>57.0</ele><time>2026-04-12T10:16:48.925Z</time></trkpt><trkpt lat="43.7742417" lon="11.2631383"><ele>57.0</ele><time>2026-04-12T10:16:50.925Z</time></trkpt><trkpt lat="43.7742583" lon="11.2632667"><ele>57.0</ele><time>2026-04-12T10:16:52.926Z</time></trkpt><trkpt lat="43.7743067" lon="11.2633433"><ele>57.0</ele><time>2026-04-12T10:16:54.926Z</time></trkpt><trkpt lat="43.7743517" lon="11.2634183"><ele>57.0</ele><time>2026-04-12T10:16:59.925Z</time></trkpt><trkpt lat="43.7741997" lon="11.2628024"><ele>57.0</ele><time>2026-04-12T10:17:19.342Z</time></trkpt><trkpt lat="43.7741379" lon="11.2628629"><ele>57.0</ele><time>2026-04-12T10:18:30.072Z</time></trkpt><trkpt lat="43.7740883" lon="11.262995"><ele>57.0</ele><time>2026-04-12T10:18:39.924Z</time></trkpt><trkpt lat="43.7741383" lon="11.263085"><ele>57.0</ele><time>2026-04-12T10:18:43.925Z</time></trkpt><trkpt lat="43.7741567" lon="11.26319"><ele>57.0</ele><time>2026-04-12T10:18:47.924Z</time></trkpt><trkpt lat="43.7741583" lon="11.26329"><ele>57.0</ele><time>2026-04-12T10:18:50.925Z</time></trkpt><trkpt lat="43.7741955" lon="11.2628393"><ele>57.0</ele><time>2026-04-12T10:19:08.086Z</time></trkpt><trkpt lat="43.7749333" lon="11.2637683"><ele>57.0</ele><time>2026-04-12T10:19:30.924Z</time></trkpt><trkpt lat="43.7748667" lon="11.2637017"><ele>57.0</ele><time>2026-04-12T10:19:32.923Z</time></trkpt><trkpt lat="43.7748117" lon="11.2636117"><ele>57.0</ele><time>2026-04-12T10:19:33.924Z</time></trkpt><trkpt lat="43.7747417" lon="11.2635283"><ele>57.0</ele><time>2026-04-12T10:19:34.923Z</time></trkpt><trkpt lat="43.7745567" lon="11.2632933"><ele>57.0</ele><time>2026-04-12T10:19:36.924Z</time></trkpt><trkpt lat="43.774345" lon="11.2631817"><ele>57.0</ele><time>2026-04-12T10:19:38.923Z</time></trkpt><trkpt lat="43.7742933" lon="11.2631183"><ele>57.0</ele><time>2026-04-12T10:19:39.923Z</time></trkpt><trkpt lat="43.7741921" lon="11.2628352"><ele>57.0</ele><time>2026-04-12T10:19:49.764Z</time></trkpt><trkpt lat="43.773985" lon="11.2625833"><ele>57.0</ele><time>2026-04-12T10:19:59.926Z</time></trkpt><trkpt lat="43.7740033" lon="11.2626767"><ele>57.0</ele><time>2026-04-12T10:20:02.925Z</time></trkpt><trkpt lat="43.773935" lon="11.26265"><ele>57.0</ele><time>2026-04-12T10:20:04.925Z</time></trkpt><trkpt lat="43.7739967" lon="11.262825"><ele>57.0</ele><time>2026-04-12T10:20:43.925Z</time></trkpt><trkpt lat="43.77404" lon="11.2629017"><ele>56.99999999999999</ele><time>2026-04-12T10:20:44.925Z</time></trkpt><trkpt lat="43.774085" lon="11.262985"><ele>57.0</ele><time>2026-04-12T10:20:46.925Z</time></trkpt><trkpt lat="43.774125" lon="11.2630583"><ele>57.0</ele><time>2026-04-12T10:20:50.925Z</time></trkpt><trkpt lat="43.77407" lon="11.2629617"><ele>56.99999999999999</ele><time>2026-04-12T10:21:31.925Z</time></trkpt><trkpt lat="43.7740583" lon="11.26305"><ele>57.0</ele><time>2026-04-12T10:21:40.925Z</time></trkpt><trkpt lat="43.7739917" lon="11.2630233"><ele>57.0</ele><time>2026-04-12T10:22:15.926Z</time></trkpt><trkpt lat="43.7739433" lon="11.2629633"><ele>57.0</ele><time>2026-04-12T10:23:11.925Z</time></trkpt><trkpt lat="43.77388" lon="11.2630083"><ele>57.0</ele><time>2026-04-12T10:27:56.924Z</time></trkpt><trkpt lat="43.7739667" lon="11.26305"><ele>57.0</ele><time>2026-04-12T10:27:58.924Z</time></trkpt><trkpt lat="43.773915" lon="11.26298"><ele>57.0</ele><time>2026-04-12T10:28:39.924Z</time></trkpt><trkpt lat="43.7740417" lon="11.2629883"><ele>57.0</ele><time>2026-04-12T10:30:32.925Z</time></trkpt><trkpt lat="43.7739129" lon="11.26303"><ele>57.0</ele><time>2026-04-12T10:30:43.925Z</time></trkpt><trkpt lat="43.7738289" lon="11.2630326"><ele>57.0</ele><time>2026-04-12T10:30:45.925Z</time></trkpt><trkpt lat="43.7739052" lon="11.2629891"><ele>57.0</ele><time>2026-04-12T10:30:46.925Z</time></trkpt><trkpt lat="43.7739844" lon="11.262953"><ele>57.0</ele><time>2026-04-12T10:30:48.925Z</time></trkpt><trkpt lat="43.7740448" lon="11.2629241"><ele>57.0</ele><time>2026-04-12T10:30:51.725Z</time></trkpt></trkseg></trk></gpx>